sensor_id;sensor_type;location;lat;lon;timestamp;temperature;humidity
78522;SHT31;67819;51.972;5.678;2023-06-19T00:01:58;24.5;46.9
78522;SHT31;67819;51.972;5.678;2023-06-19T00:04:27;24.5;47.4
78522;SHT31;67819;51.972;5.678;2023-06-19T00:06:55;24.5;47.6
78522;SHT31;67819;51.972;5.678;2023-06-19T00:09:24;24.5;47.8
78522;SHT31;67819;51.972;5.678;2023-06-19T00:11:52;24.5;48.1
78522;SHT31;67819;51.972;5.678;2023-06-19T00:14:21;24.5;48.3
78522;SHT31;67819;51.972;5.678;2023-06-19T00:16:50;24.5;48.4
78522;SHT31;67819;51.972;5.678;2023-06-19T00:19:18;24.5;48.8
78522;SHT31;67819;51.972;5.678;2023-06-19T00:21:47;24.5;49.0
78522;SHT31;67819;51.972;5.678;2023-06-19T00:24:17;24.4;49.1
78522;SHT31;67819;51.972;5.678;2023-06-19T00:26:46;24.4;49.3
78522;SHT31;67819;51.972;5.678;2023-06-19T00:29:15;24.4;49.2
78522;SHT31;67819;51.972;5.678;2023-06-19T00:31:43;24.3;49.4
78522;SHT31;67819;51.972;5.678;2023-06-19T00:34:12;24.3;49.6
78522;SHT31;67819;51.972;5.678;2023-06-19T00:36:40;24.2;49.7
78522;SHT31;67819;51.972;5.678;2023-06-19T00:39:09;24.2;49.7
78522;SHT31;67819;51.972;5.678;2023-06-19T00:41:39;24.1;49.8
78522;SHT31;67819;51.972;5.678;2023-06-19T00:44:09;24.1;50.0
78522;SHT31;67819;51.972;5.678;2023-06-19T00:46:40;24.1;49.8
78522;SHT31;67819;51.972;5.678;2023-06-19T00:49:09;24.0;50.0
78522;SHT31;67819;51.972;5.678;2023-06-19T00:51:38;24.0;49.9
78522;SHT31;67819;51.972;5.678;2023-06-19T00:54:07;24.0;50.1
78522;SHT31;67819;51.972;5.678;2023-06-19T00:56:37;23.9;50.1
78522;SHT31;67819;51.972;5.678;2023-06-19T00:59:16;23.9;50.3
78522;SHT31;67819;51.972;5.678;2023-06-19T01:01:45;23.9;50.5
78522;SHT31;67819;51.972;5.678;2023-06-19T01:04:14;23.8;50.6
78522;SHT31;67819;51.972;5.678;2023-06-19T01:06:50;23.8;50.6
78522;SHT31;67819;51.972;5.678;2023-06-19T01:09:20;23.8;50.7
78522;SHT31;67819;51.972;5.678;2023-06-19T01:11:54;23.7;50.8
78522;SHT31;67819;51.972;5.678;2023-06-19T01:14:28;23.7;50.9
78522;SHT31;67819;51.972;5.678;2023-06-19T01:16:59;23.6;51.1
78522;SHT31;67819;51.972;5.678;2023-06-19T01:19:29;23.6;51.3
78522;SHT31;67819;51.972;5.678;2023-06-19T01:22:02;23.5;51.5
78522;SHT31;67819;51.972;5.678;2023-06-19T01:24:31;23.5;51.7
78522;SHT31;67819;51.972;5.678;2023-06-19T01:26:59;23.4;51.9
78522;SHT31;67819;51.972;5.678;2023-06-19T01:29:29;23.4;52.2
78522;SHT31;67819;51.972;5.678;2023-06-19T01:32:02;23.3;52.4
78522;SHT31;67819;51.972;5.678;2023-06-19T01:34:33;23.3;52.7
78522;SHT31;67819;51.972;5.678;2023-06-19T01:37:04;23.2;52.8
78522;SHT31;67819;51.972;5.678;2023-06-19T01:39:33;23.2;52.9
78522;SHT31;67819;51.972;5.678;2023-06-19T01:42:04;23.1;53.1
78522;SHT31;67819;51.972;5.678;2023-06-19T01:44:36;23.1;53.2
78522;SHT31;67819;51.972;5.678;2023-06-19T01:47:09;23.0;53.4
78522;SHT31;67819;51.972;5.678;2023-06-19T01:49:39;23.0;53.6
78522;SHT31;67819;51.972;5.678;2023-06-19T01:52:08;22.9;53.7
78522;SHT31;67819;51.972;5.678;2023-06-19T01:54:37;22.9;53.8
78522;SHT31;67819;51.972;5.678;2023-06-19T01:57:06;22.9;54.0
78522;SHT31;67819;51.972;5.678;2023-06-19T01:59:35;22.8;54.3
78522;SHT31;67819;51.972;5.678;2023-06-19T02:02:04;22.8;54.3
78522;SHT31;67819;51.972;5.678;2023-06-19T02:04:33;22.7;54.5
78522;SHT31;67819;51.972;5.678;2023-06-19T02:07:04;22.7;54.7
78522;SHT31;67819;51.972;5.678;2023-06-19T02:09:33;22.6;54.9
78522;SHT31;67819;51.972;5.678;2023-06-19T02:12:02;22.6;55.1
78522;SHT31;67819;51.972;5.678;2023-06-19T02:14:30;22.6;55.5
78522;SHT31;67819;51.972;5.678;2023-06-19T02:16:59;22.5;55.8
78522;SHT31;67819;51.972;5.678;2023-06-19T02:19:27;22.5;56.1
78522;SHT31;67819;51.972;5.678;2023-06-19T02:21:56;22.4;56.3
78522;SHT31;67819;51.972;5.678;2023-06-19T02:24:25;22.4;56.6
78522;SHT31;67819;51.972;5.678;2023-06-19T02:26:54;22.4;56.9
78522;SHT31;67819;51.972;5.678;2023-06-19T02:29:22;22.3;57.0
78522;SHT31;67819;51.972;5.678;2023-06-19T02:31:53;22.3;57.3
78522;SHT31;67819;51.972;5.678;2023-06-19T02:34:24;22.3;57.5
78522;SHT31;67819;51.972;5.678;2023-06-19T02:36:52;22.2;57.9
78522;SHT31;67819;51.972;5.678;2023-06-19T02:39:21;22.2;58.2
78522;SHT31;67819;51.972;5.678;2023-06-19T02:41:50;22.2;58.4
78522;SHT31;67819;51.972;5.678;2023-06-19T02:44:18;22.1;59.0
78522;SHT31;67819;51.972;5.678;2023-06-19T02:46:47;22.1;59.3
78522;SHT31;67819;51.972;5.678;2023-06-19T02:49:15;22.1;59.6
78522;SHT31;67819;51.972;5.678;2023-06-19T02:51:44;22.1;59.9
78522;SHT31;67819;51.972;5.678;2023-06-19T02:54:12;22.1;60.2
78522;SHT31;67819;51.972;5.678;2023-06-19T02:56:43;22.0;60.3
78522;SHT31;67819;51.972;5.678;2023-06-19T02:59:11;22.0;60.4
78522;SHT31;67819;51.972;5.678;2023-06-19T03:01:40;22.0;60.6
78522;SHT31;67819;51.972;5.678;2023-06-19T03:04:11;22.0;60.7
78522;SHT31;67819;51.972;5.678;2023-06-19T03:06:40;22.0;60.8
78522;SHT31;67819;51.972;5.678;2023-06-19T03:09:09;22.0;60.8
78522;SHT31;67819;51.972;5.678;2023-06-19T03:11:41;22.0;60.9
78522;SHT31;67819;51.972;5.678;2023-06-19T03:14:09;22.0;61.0
78522;SHT31;67819;51.972;5.678;2023-06-19T03:16:38;22.0;61.1
78522;SHT31;67819;51.972;5.678;2023-06-19T03:19:07;22.1;61.1
78522;SHT31;67819;51.972;5.678;2023-06-19T03:21:35;22.1;61.2
78522;SHT31;67819;51.972;5.678;2023-06-19T03:24:04;22.1;61.3
78522;SHT31;67819;51.972;5.678;2023-06-19T03:26:34;22.1;61.2
78522;SHT31;67819;51.972;5.678;2023-06-19T03:29:02;22.1;61.3
78522;SHT31;67819;51.972;5.678;2023-06-19T03:31:31;22.1;61.3
78522;SHT31;67819;51.972;5.678;2023-06-19T03:33:59;22.1;61.3
78522;SHT31;67819;51.972;5.678;2023-06-19T03:36:28;22.1;61.3
78522;SHT31;67819;51.972;5.678;2023-06-19T03:38:58;22.1;61.3
78522;SHT31;67819;51.972;5.678;2023-06-19T03:41:27;22.1;61.4
78522;SHT31;67819;51.972;5.678;2023-06-19T03:43:55;22.1;61.5
78522;SHT31;67819;51.972;5.678;2023-06-19T03:46:24;22.1;61.5
78522;SHT31;67819;51.972;5.678;2023-06-19T03:48:52;22.1;61.6
78522;SHT31;67819;51.972;5.678;2023-06-19T03:51:21;22.1;61.6
78522;SHT31;67819;51.972;5.678;2023-06-19T03:53:50;22.1;61.6
78522;SHT31;67819;51.972;5.678;2023-06-19T03:56:20;22.1;61.7
78522;SHT31;67819;51.972;5.678;2023-06-19T03:58:49;22.1;61.7
78522;SHT31;67819;51.972;5.678;2023-06-19T04:01:18;22.1;61.8
78522;SHT31;67819;51.972;5.678;2023-06-19T04:03:46;22.1;62.0
78522;SHT31;67819;51.972;5.678;2023-06-19T04:06:15;22.0;62.1
78522;SHT31;67819;51.972;5.678;2023-06-19T04:08:45;22.0;62.3
78522;SHT31;67819;51.972;5.678;2023-06-19T04:11:14;22.0;62.4
78522;SHT31;67819;51.972;5.678;2023-06-19T04:13:42;22.0;62.6
78522;SHT31;67819;51.972;5.678;2023-06-19T04:16:11;22.0;62.6
78522;SHT31;67819;51.972;5.678;2023-06-19T04:18:39;22.0;62.7
78522;SHT31;67819;51.972;5.678;2023-06-19T04:21:08;22.0;62.7
78522;SHT31;67819;51.972;5.678;2023-06-19T04:23:38;22.0;62.7
78522;SHT31;67819;51.972;5.678;2023-06-19T04:26:07;22.0;62.9
78522;SHT31;67819;51.972;5.678;2023-06-19T04:28:36;22.0;63.0
78522;SHT31;67819;51.972;5.678;2023-06-19T04:31:07;22.0;63.1
78522;SHT31;67819;51.972;5.678;2023-06-19T04:33:36;22.0;63.2
78522;SHT31;67819;51.972;5.678;2023-06-19T04:36:06;22.0;63.3
78522;SHT31;67819;51.972;5.678;2023-06-19T04:38:36;22.0;63.5
78522;SHT31;67819;51.972;5.678;2023-06-19T04:41:07;22.0;63.8
78522;SHT31;67819;51.972;5.678;2023-06-19T04:43:35;22.0;64.0
78522;SHT31;67819;51.972;5.678;2023-06-19T04:46:04;22.0;64.4
78522;SHT31;67819;51.972;5.678;2023-06-19T04:48:32;22.0;64.9
78522;SHT31;67819;51.972;5.678;2023-06-19T04:51:03;21.9;65.4
78522;SHT31;67819;51.972;5.678;2023-06-19T04:53:31;21.9;65.9
78522;SHT31;67819;51.972;5.678;2023-06-19T04:56:00;21.9;66.5
78522;SHT31;67819;51.972;5.678;2023-06-19T04:58:28;21.8;66.8
78522;SHT31;67819;51.972;5.678;2023-06-19T05:00:58;21.8;67.0
78522;SHT31;67819;51.972;5.678;2023-06-19T05:03:26;21.7;67.3
78522;SHT31;67819;51.972;5.678;2023-06-19T05:05:55;21.7;67.5
78522;SHT31;67819;51.972;5.678;2023-06-19T05:08:23;21.7;67.4
78522;SHT31;67819;51.972;5.678;2023-06-19T05:10:52;21.7;67.5
78522;SHT31;67819;51.972;5.678;2023-06-19T05:13:22;21.7;67.4
78522;SHT31;67819;51.972;5.678;2023-06-19T05:15:51;21.7;67.3
78522;SHT31;67819;51.972;5.678;2023-06-19T05:18:20;21.7;67.4
78522;SHT31;67819;51.972;5.678;2023-06-19T05:20:48;21.6;67.4
78522;SHT31;67819;51.972;5.678;2023-06-19T05:23:17;21.6;67.6
78522;SHT31;67819;51.972;5.678;2023-06-19T05:25:45;21.6;67.7
78522;SHT31;67819;51.972;5.678;2023-06-19T05:28:14;21.6;67.6
78522;SHT31;67819;51.972;5.678;2023-06-19T05:30:43;21.6;67.7
78522;SHT31;67819;51.972;5.678;2023-06-19T05:33:12;21.6;67.7
78522;SHT31;67819;51.972;5.678;2023-06-19T05:35:42;21.7;67.8
78522;SHT31;67819;51.972;5.678;2023-06-19T05:38:16;21.7;67.7
78522;SHT31;67819;51.972;5.678;2023-06-19T05:40:45;21.7;67.6
78522;SHT31;67819;51.972;5.678;2023-06-19T05:43:13;21.7;67.6
78522;SHT31;67819;51.972;5.678;2023-06-19T05:45:42;21.7;67.8
78522;SHT31;67819;51.972;5.678;2023-06-19T05:48:10;21.7;67.5
78522;SHT31;67819;51.972;5.678;2023-06-19T05:50:39;21.7;67.6
78522;SHT31;67819;51.972;5.678;2023-06-19T05:53:08;21.8;67.2
78522;SHT31;67819;51.972;5.678;2023-06-19T05:55:36;21.8;66.9
78522;SHT31;67819;51.972;5.678;2023-06-19T05:58:05;21.8;66.7
78522;SHT31;67819;51.972;5.678;2023-06-19T06:00:36;21.9;66.6
78522;SHT31;67819;51.972;5.678;2023-06-19T06:03:04;21.9;66.3
78522;SHT31;67819;51.972;5.678;2023-06-19T06:05:33;21.9;65.8
78522;SHT31;67819;51.972;5.678;2023-06-19T06:08:03;22.0;65.7
78522;SHT31;67819;51.972;5.678;2023-06-19T06:10:31;22.0;65.7
78522;SHT31;67819;51.972;5.678;2023-06-19T06:13:00;22.1;65.2
78522;SHT31;67819;51.972;5.678;2023-06-19T06:15:31;22.1;64.9
78522;SHT31;67819;51.972;5.678;2023-06-19T06:17:59;22.2;64.2
78522;SHT31;67819;51.972;5.678;2023-06-19T06:20:29;22.2;63.6
78522;SHT31;67819;51.972;5.678;2023-06-19T06:22:58;22.3;62.8
78522;SHT31;67819;51.972;5.678;2023-06-19T06:25:27;22.3;62.4
78522;SHT31;67819;51.972;5.678;2023-06-19T06:27:55;22.3;62.4
78522;SHT31;67819;51.972;5.678;2023-06-19T06:30:24;22.3;61.8
78522;SHT31;67819;51.972;5.678;2023-06-19T06:32:54;22.3;61.2
78522;SHT31;67819;51.972;5.678;2023-06-19T06:35:23;22.3;61.2
78522;SHT31;67819;51.972;5.678;2023-06-19T06:37:51;22.3;60.9
78522;SHT31;67819;51.972;5.678;2023-06-19T06:40:22;22.3;60.7
78522;SHT31;67819;51.972;5.678;2023-06-19T06:42:52;22.3;60.7
78522;SHT31;67819;51.972;5.678;2023-06-19T06:45:23;22.3;60.0
78522;SHT31;67819;51.972;5.678;2023-06-19T06:47:52;22.3;59.7
78522;SHT31;67819;51.972;5.678;2023-06-19T06:50:20;22.4;59.1
78522;SHT31;67819;51.972;5.678;2023-06-19T06:52:49;22.4;58.8
78522;SHT31;67819;51.972;5.678;2023-06-19T06:55:17;22.4;58.6
78522;SHT31;67819;51.972;5.678;2023-06-19T06:57:47;22.4;58.2
78522;SHT31;67819;51.972;5.678;2023-06-19T07:00:16;22.4;57.9
78522;SHT31;67819;51.972;5.678;2023-06-19T07:02:44;22.4;57.7
78522;SHT31;67819;51.972;5.678;2023-06-19T07:05:14;22.5;57.7
78522;SHT31;67819;51.972;5.678;2023-06-19T07:07:43;22.5;58.2
78522;SHT31;67819;51.972;5.678;2023-06-19T07:10:11;22.5;58.5
78522;SHT31;67819;51.972;5.678;2023-06-19T07:12:47;22.5;59.0
78522;SHT31;67819;51.972;5.678;2023-06-19T07:15:17;22.5;59.1
78522;SHT31;67819;51.972;5.678;2023-06-19T07:17:47;22.6;59.2
78522;SHT31;67819;51.972;5.678;2023-06-19T07:20:15;22.6;59.3
78522;SHT31;67819;51.972;5.678;2023-06-19T07:22:45;22.6;59.0
78522;SHT31;67819;51.972;5.678;2023-06-19T07:25:13;22.6;58.8
78522;SHT31;67819;51.972;5.678;2023-06-19T07:27:43;22.6;58.2
78522;SHT31;67819;51.972;5.678;2023-06-19T07:30:14;22.6;57.2
78522;SHT31;67819;51.972;5.678;2023-06-19T07:32:43;22.6;57.2
78522;SHT31;67819;51.972;5.678;2023-06-19T07:35:11;22.6;56.7
78522;SHT31;67819;51.972;5.678;2023-06-19T07:37:40;22.6;56.6
78522;SHT31;67819;51.972;5.678;2023-06-19T07:40:09;22.6;56.3
78522;SHT31;67819;51.972;5.678;2023-06-19T07:42:39;22.7;56.3
78522;SHT31;67819;51.972;5.678;2023-06-19T07:45:08;22.7;56.2
78522;SHT31;67819;51.972;5.678;2023-06-19T07:47:37;22.7;56.3
78522;SHT31;67819;51.972;5.678;2023-06-19T07:50:06;22.8;55.9
78522;SHT31;67819;51.972;5.678;2023-06-19T07:52:36;22.8;55.7
78522;SHT31;67819;51.972;5.678;2023-06-19T07:55:06;22.8;55.1
78522;SHT31;67819;51.972;5.678;2023-06-19T07:57:36;22.8;55.2
78522;SHT31;67819;51.972;5.678;2023-06-19T08:00:05;22.8;55.3
78522;SHT31;67819;51.972;5.678;2023-06-19T08:02:38;22.8;55.4
78522;SHT31;67819;51.972;5.678;2023-06-19T08:05:09;22.8;55.2
78522;SHT31;67819;51.972;5.678;2023-06-19T08:07:40;22.8;55.2
78522;SHT31;67819;51.972;5.678;2023-06-19T08:10:09;22.8;55.5
78522;SHT31;67819;51.972;5.678;2023-06-19T08:12:38;22.8;55.0
78522;SHT31;67819;51.972;5.678;2023-06-19T08:15:07;22.8;54.8
78522;SHT31;67819;51.972;5.678;2023-06-19T08:17:36;22.8;54.8
78522;SHT31;67819;51.972;5.678;2023-06-19T08:20:06;22.8;54.4
78522;SHT31;67819;51.972;5.678;2023-06-19T08:22:36;22.8;54.5
78522;SHT31;67819;51.972;5.678;2023-06-19T08:25:05;22.8;54.8
78522;SHT31;67819;51.972;5.678;2023-06-19T08:27:34;22.8;55.0
78522;SHT31;67819;51.972;5.678;2023-06-19T08:30:03;22.9;55.1
78522;SHT31;67819;51.972;5.678;2023-06-19T08:32:32;22.9;55.2
78522;SHT31;67819;51.972;5.678;2023-06-19T08:35:01;22.9;55.4
78522;SHT31;67819;51.972;5.678;2023-06-19T08:37:30;22.9;55.4
78522;SHT31;67819;51.972;5.678;2023-06-19T08:39:58;23.0;55.5
78522;SHT31;67819;51.972;5.678;2023-06-19T08:42:29;23.0;55.5
78522;SHT31;67819;51.972;5.678;2023-06-19T08:44:57;23.1;55.5
78522;SHT31;67819;51.972;5.678;2023-06-19T08:47:31;23.1;55.2
78522;SHT31;67819;51.972;5.678;2023-06-19T08:50:01;23.2;54.7
78522;SHT31;67819;51.972;5.678;2023-06-19T08:52:30;23.2;54.9
78522;SHT31;67819;51.972;5.678;2023-06-19T08:54:58;23.2;55.3
78522;SHT31;67819;51.972;5.678;2023-06-19T08:57:35;23.3;55.1
78522;SHT31;67819;51.972;5.678;2023-06-19T09:00:04;23.3;54.8
78522;SHT31;67819;51.972;5.678;2023-06-19T09:02:45;23.4;54.8
78522;SHT31;67819;51.972;5.678;2023-06-19T09:05:17;23.4;54.4
78522;SHT31;67819;51.972;5.678;2023-06-19T09:07:56;23.5;54.3
78522;SHT31;67819;51.972;5.678;2023-06-19T09:10:27;23.5;54.0
78522;SHT31;67819;51.972;5.678;2023-06-19T09:13:03;23.5;53.8
78522;SHT31;67819;51.972;5.678;2023-06-19T09:15:34;23.5;54.5
78522;SHT31;67819;51.972;5.678;2023-06-19T09:18:08;23.5;54.1
78522;SHT31;67819;51.972;5.678;2023-06-19T09:20:39;23.5;53.2
78522;SHT31;67819;51.972;5.678;2023-06-19T09:23:11;23.5;52.8
78522;SHT31;67819;51.972;5.678;2023-06-19T09:25:48;23.5;52.8
78522;SHT31;67819;51.972;5.678;2023-06-19T09:28:21;23.5;53.4
78522;SHT31;67819;51.972;5.678;2023-06-19T09:30:54;23.6;53.3
78522;SHT31;67819;51.972;5.678;2023-06-19T09:33:25;23.6;53.2
78522;SHT31;67819;51.972;5.678;2023-06-19T09:35:56;23.7;53.7
78522;SHT31;67819;51.972;5.678;2023-06-19T09:38:27;23.7;52.9
78522;SHT31;67819;51.972;5.678;2023-06-19T09:40:57;23.8;52.6
78522;SHT31;67819;51.972;5.678;2023-06-19T09:43:32;23.8;52.5
78522;SHT31;67819;51.972;5.678;2023-06-19T09:46:02;23.9;53.3
78522;SHT31;67819;51.972;5.678;2023-06-19T09:48:33;23.9;53.0
78522;SHT31;67819;51.972;5.678;2023-06-19T09:51:10;24.0;52.9
78522;SHT31;67819;51.972;5.678;2023-06-19T09:53:40;24.1;52.5
78522;SHT31;67819;51.972;5.678;2023-06-19T09:56:10;24.2;52.8
78522;SHT31;67819;51.972;5.678;2023-06-19T09:58:39;24.3;51.7
78522;SHT31;67819;51.972;5.678;2023-06-19T10:01:09;24.3;51.5
78522;SHT31;67819;51.972;5.678;2023-06-19T10:03:39;24.4;51.2
78522;SHT31;67819;51.972;5.678;2023-06-19T10:06:13;24.4;51.2
78522;SHT31;67819;51.972;5.678;2023-06-19T10:08:44;24.5;51.1
78522;SHT31;67819;51.972;5.678;2023-06-19T10:11:14;24.6;50.5
78522;SHT31;67819;51.972;5.678;2023-06-19T10:13:43;24.6;50.8
78522;SHT31;67819;51.972;5.678;2023-06-19T10:16:23;24.6;50.4
78522;SHT31;67819;51.972;5.678;2023-06-19T10:18:52;24.7;49.9
78522;SHT31;67819;51.972;5.678;2023-06-19T10:21:22;24.7;50.2
78522;SHT31;67819;51.972;5.678;2023-06-19T10:23:56;24.6;50.2
78522;SHT31;67819;51.972;5.678;2023-06-19T10:26:31;24.6;49.9
78522;SHT31;67819;51.972;5.678;2023-06-19T10:29:01;24.6;50.0
78522;SHT31;67819;51.972;5.678;2023-06-19T10:31:31;24.6;50.4
78522;SHT31;67819;51.972;5.678;2023-06-19T10:34:02;24.6;50.4
78522;SHT31;67819;51.972;5.678;2023-06-19T10:36:31;24.6;50.6
78522;SHT31;67819;51.972;5.678;2023-06-19T10:39:00;24.6;51.1
78522;SHT31;67819;51.972;5.678;2023-06-19T10:41:29;24.6;50.8
78522;SHT31;67819;51.972;5.678;2023-06-19T10:44:00;24.6;50.5
78522;SHT31;67819;51.972;5.678;2023-06-19T10:46:31;24.7;50.8
78522;SHT31;67819;51.972;5.678;2023-06-19T10:49:03;24.7;50.8
78522;SHT31;67819;51.972;5.678;2023-06-19T10:51:34;24.7;50.6
78522;SHT31;67819;51.972;5.678;2023-06-19T10:54:04;24.8;50.4
78522;SHT31;67819;51.972;5.678;2023-06-19T10:56:34;24.9;50.1
78522;SHT31;67819;51.972;5.678;2023-06-19T10:59:05;25.0;50.2
78522;SHT31;67819;51.972;5.678;2023-06-19T11:01:37;25.0;50.0
78522;SHT31;67819;51.972;5.678;2023-06-19T11:04:09;25.1;49.0
78522;SHT31;67819;51.972;5.678;2023-06-19T11:06:39;25.1;49.2
78522;SHT31;67819;51.972;5.678;2023-06-19T11:09:11;25.2;48.4
78522;SHT31;67819;51.972;5.678;2023-06-19T11:11:42;25.3;48.2
78522;SHT31;67819;51.972;5.678;2023-06-19T11:14:11;25.4;48.6
78522;SHT31;67819;51.972;5.678;2023-06-19T11:16:42;25.4;48.6
78522;SHT31;67819;51.972;5.678;2023-06-19T11:19:15;25.4;48.1
78522;SHT31;67819;51.972;5.678;2023-06-19T11:21:48;25.5;48.2
78522;SHT31;67819;51.972;5.678;2023-06-19T11:24:18;25.5;48.0
78522;SHT31;67819;51.972;5.678;2023-06-19T11:26:48;25.5;47.4
78522;SHT31;67819;51.972;5.678;2023-06-19T11:29:19;25.5;48.5
78522;SHT31;67819;51.972;5.678;2023-06-19T11:31:50;25.6;48.1
78522;SHT31;67819;51.972;5.678;2023-06-19T11:34:32;25.8;47.7
78522;SHT31;67819;51.972;5.678;2023-06-19T11:37:10;25.9;46.8
78522;SHT31;67819;51.972;5.678;2023-06-19T11:39:36;25.9;46.9
78522;SHT31;67819;51.972;5.678;2023-06-19T11:42:06;26.0;46.8
78522;SHT31;67819;51.972;5.678;2023-06-19T11:44:35;26.0;47.0
78522;SHT31;67819;51.972;5.678;2023-06-19T11:47:04;26.1;46.5
78522;SHT31;67819;51.972;5.678;2023-06-19T11:49:36;26.1;45.6
78522;SHT31;67819;51.972;5.678;2023-06-19T11:52:05;26.2;45.6
78522;SHT31;67819;51.972;5.678;2023-06-19T11:54:36;26.2;45.9
78522;SHT31;67819;51.972;5.678;2023-06-19T11:57:08;26.3;45.7
78522;SHT31;67819;51.972;5.678;2023-06-19T11:59:38;26.3;45.2
78522;SHT31;67819;51.972;5.678;2023-06-19T12:02:08;26.4;44.7
78522;SHT31;67819;51.972;5.678;2023-06-19T12:04:37;26.4;44.4
78522;SHT31;67819;51.972;5.678;2023-06-19T12:07:06;26.4;44.2
78522;SHT31;67819;51.972;5.678;2023-06-19T12:09:35;26.5;44.3
78522;SHT31;67819;51.972;5.678;2023-06-19T12:12:06;26.5;45.0
78522;SHT31;67819;51.972;5.678;2023-06-19T12:14:34;26.5;44.8
78522;SHT31;67819;51.972;5.678;2023-06-19T12:17:06;26.5;43.9
78522;SHT31;67819;51.972;5.678;2023-06-19T12:19:34;26.6;43.8
78522;SHT31;67819;51.972;5.678;2023-06-19T12:22:04;26.7;43.2
78522;SHT31;67819;51.972;5.678;2023-06-19T12:24:32;26.8;43.0
78522;SHT31;67819;51.972;5.678;2023-06-19T12:27:01;26.9;42.9
78522;SHT31;67819;51.972;5.678;2023-06-19T12:29:29;26.9;43.6
78522;SHT31;67819;51.972;5.678;2023-06-19T12:32:01;27.0;42.7
78522;SHT31;67819;51.972;5.678;2023-06-19T12:34:30;27.1;42.2
78522;SHT31;67819;51.972;5.678;2023-06-19T12:36:59;27.2;41.8
78522;SHT31;67819;51.972;5.678;2023-06-19T12:39:28;27.2;42.4
78522;SHT31;67819;51.972;5.678;2023-06-19T12:41:58;27.3;42.3
78522;SHT31;67819;51.972;5.678;2023-06-19T12:44:26;27.4;42.4
78522;SHT31;67819;51.972;5.678;2023-06-19T12:46:55;27.5;42.6
78522;SHT31;67819;51.972;5.678;2023-06-19T12:49:25;27.6;41.5
78522;SHT31;67819;51.972;5.678;2023-06-19T12:51:55;27.7;41.0
78522;SHT31;67819;51.972;5.678;2023-06-19T12:54:25;27.8;40.9
78522;SHT31;67819;51.972;5.678;2023-06-19T12:56:55;27.8;40.6
78522;SHT31;67819;51.972;5.678;2023-06-19T12:59:26;27.8;40.1
78522;SHT31;67819;51.972;5.678;2023-06-19T13:01:55;27.8;40.0
78522;SHT31;67819;51.972;5.678;2023-06-19T13:04:24;27.9;39.9
78522;SHT31;67819;51.972;5.678;2023-06-19T13:06:52;28.0;39.2
78522;SHT31;67819;51.972;5.678;2023-06-19T13:09:21;28.1;39.2
78522;SHT31;67819;51.972;5.678;2023-06-19T13:11:50;28.3;38.5
78522;SHT31;67819;51.972;5.678;2023-06-19T13:14:18;28.4;38.2
78522;SHT31;67819;51.972;5.678;2023-06-19T13:16:47;28.5;37.3
78522;SHT31;67819;51.972;5.678;2023-06-19T13:19:16;28.7;37.1
78522;SHT31;67819;51.972;5.678;2023-06-19T13:21:44;28.9;37.1
78522;SHT31;67819;51.972;5.678;2023-06-19T13:24:13;29.1;37.3
78522;SHT31;67819;51.972;5.678;2023-06-19T13:26:44;29.3;37.3
78522;SHT31;67819;51.972;5.678;2023-06-19T13:29:15;29.6;36.1
78522;SHT31;67819;51.972;5.678;2023-06-19T13:31:44;29.9;35.9
78522;SHT31;67819;51.972;5.678;2023-06-19T13:34:12;30.1;35.8
78522;SHT31;67819;51.972;5.678;2023-06-19T13:36:42;30.2;35.3
78522;SHT31;67819;51.972;5.678;2023-06-19T13:39:11;30.3;35.5
78522;SHT31;67819;51.972;5.678;2023-06-19T13:41:40;30.4;35.6
78522;SHT31;67819;51.972;5.678;2023-06-19T13:44:09;30.5;35.1
78522;SHT31;67819;51.972;5.678;2023-06-19T13:46:41;30.6;35.2
78522;SHT31;67819;51.972;5.678;2023-06-19T13:49:10;30.7;34.6
78522;SHT31;67819;51.972;5.678;2023-06-19T13:51:40;30.7;34.9
78522;SHT31;67819;51.972;5.678;2023-06-19T13:54:10;30.8;34.7
78522;SHT31;67819;51.972;5.678;2023-06-19T13:56:39;30.8;35.0
78522;SHT31;67819;51.972;5.678;2023-06-19T13:59:08;30.9;34.3
78522;SHT31;67819;51.972;5.678;2023-06-19T14:01:37;31.1;34.2
78522;SHT31;67819;51.972;5.678;2023-06-19T14:04:07;31.2;33.9
78522;SHT31;67819;51.972;5.678;2023-06-19T14:06:37;31.3;34.0
78522;SHT31;67819;51.972;5.678;2023-06-19T14:09:08;31.5;33.2
78522;SHT31;67819;51.972;5.678;2023-06-19T14:11:37;31.6;32.9
78522;SHT31;67819;51.972;5.678;2023-06-19T14:14:05;31.6;33.1
78522;SHT31;67819;51.972;5.678;2023-06-19T14:16:34;31.7;33.3
78522;SHT31;67819;51.972;5.678;2023-06-19T14:19:03;31.7;33.3
78522;SHT31;67819;51.972;5.678;2023-06-19T14:21:31;31.8;32.8
78522;SHT31;67819;51.972;5.678;2023-06-19T14:24:00;31.9;32.3
78522;SHT31;67819;51.972;5.678;2023-06-19T14:26:28;31.9;32.7
78522;SHT31;67819;51.972;5.678;2023-06-19T14:28:59;31.9;32.0
78522;SHT31;67819;51.972;5.678;2023-06-19T14:31:27;31.9;32.5
78522;SHT31;67819;51.972;5.678;2023-06-19T14:33:56;31.7;32.3
78522;SHT31;67819;51.972;5.678;2023-06-19T14:36:24;31.3;32.9
78522;SHT31;67819;51.972;5.678;2023-06-19T14:38:53;31.1;33.6
78522;SHT31;67819;51.972;5.678;2023-06-19T14:41:22;30.9;33.4
78522;SHT31;67819;51.972;5.678;2023-06-19T14:43:50;30.7;34.0
78522;SHT31;67819;51.972;5.678;2023-06-19T14:46:19;30.5;34.3
78522;SHT31;67819;51.972;5.678;2023-06-19T14:48:48;30.4;34.7
78522;SHT31;67819;51.972;5.678;2023-06-19T14:51:16;30.3;35.3
78522;SHT31;67819;51.972;5.678;2023-06-19T14:53:45;30.2;34.8
78522;SHT31;67819;51.972;5.678;2023-06-19T14:56:14;30.0;35.2
78522;SHT31;67819;51.972;5.678;2023-06-19T14:58:42;29.9;35.4
78522;SHT31;67819;51.972;5.678;2023-06-19T15:01:11;29.8;36.0
78522;SHT31;67819;51.972;5.678;2023-06-19T15:03:41;29.8;36.5
78522;SHT31;67819;51.972;5.678;2023-06-19T15:06:10;29.7;36.3
78522;SHT31;67819;51.972;5.678;2023-06-19T15:08:39;29.7;36.0
78522;SHT31;67819;51.972;5.678;2023-06-19T15:11:07;29.6;35.8
78522;SHT31;67819;51.972;5.678;2023-06-19T15:13:36;29.6;35.8
78522;SHT31;67819;51.972;5.678;2023-06-19T15:16:04;29.5;36.2
78522;SHT31;67819;51.972;5.678;2023-06-19T15:18:34;29.5;36.5
78522;SHT31;67819;51.972;5.678;2023-06-19T15:21:03;29.5;36.8
78522;SHT31;67819;51.972;5.678;2023-06-19T15:23:33;29.5;35.8
78522;SHT31;67819;51.972;5.678;2023-06-19T15:26:03;29.5;36.2
78522;SHT31;67819;51.972;5.678;2023-06-19T15:28:33;29.5;35.9
78522;SHT31;67819;51.972;5.678;2023-06-19T15:31:03;29.4;36.2
78522;SHT31;67819;51.972;5.678;2023-06-19T15:33:31;29.4;36.4
78522;SHT31;67819;51.972;5.678;2023-06-19T15:36:02;29.4;36.9
78522;SHT31;67819;51.972;5.678;2023-06-19T15:38:30;29.3;36.8
78522;SHT31;67819;51.972;5.678;2023-06-19T15:40:59;29.3;37.2
78522;SHT31;67819;51.972;5.678;2023-06-19T15:43:27;29.3;36.9
78522;SHT31;67819;51.972;5.678;2023-06-19T15:45:57;29.3;36.3
78522;SHT31;67819;51.972;5.678;2023-06-19T15:48:26;29.3;36.3
78522;SHT31;67819;51.972;5.678;2023-06-19T15:50:55;29.2;36.9
78522;SHT31;67819;51.972;5.678;2023-06-19T15:53:24;29.1;37.6
78522;SHT31;67819;51.972;5.678;2023-06-19T15:55:52;29.1;37.2
78522;SHT31;67819;51.972;5.678;2023-06-19T15:58:21;29.1;37.4
78522;SHT31;67819;51.972;5.678;2023-06-19T16:00:52;29.1;37.2
78522;SHT31;67819;51.972;5.678;2023-06-19T16:03:21;29.1;37.4
78522;SHT31;67819;51.972;5.678;2023-06-19T16:05:50;29.1;37.4
78522;SHT31;67819;51.972;5.678;2023-06-19T16:08:19;29.1;36.9
78522;SHT31;67819;51.972;5.678;2023-06-19T16:10:50;29.1;37.4
78522;SHT31;67819;51.972;5.678;2023-06-19T16:13:19;29.2;37.1
78522;SHT31;67819;51.972;5.678;2023-06-19T16:15:47;29.2;37.4
78522;SHT31;67819;51.972;5.678;2023-06-19T16:18:16;29.2;37.4